sensor_id;sensor_type;location;lat;lon;timestamp;pressure;altitude;pressure_sealevel;temperature;humidity
30073;BME280;16897;52.422;13.678;2023-05-02T00:00:03;100941.69;;;16.23;38.59
30073;BME280;16897;52.422;13.678;2023-05-02T00:04:06;100931.88;;;16.13;38.63
30073;BME280;16897;52.422;13.678;2023-05-02T00:08:08;100929.47;;;16.10;38.67
30073;BME280;16897;52.422;13.678;2023-05-02T00:12:10;100945.19;;;16.23;38.55
30073;BME280;16897;52.422;13.678;2023-05-02T00:16:11;100905.81;;;15.98;38.70
30073;BME280;16897;52.422;13.678;2023-05-02T00:20:13;100947.84;;;16.23;38.91
30073;BME280;16897;52.422;13.678;2023-05-02T00:24:16;100924.78;;;16.14;38.67
30073;BME280;16897;52.422;13.678;2023-05-02T00:28:18;100922.53;;;16.09;38.73
30073;BME280;16897;52.422;13.678;2023-05-02T00:32:19;100919.03;;;16.09;38.94
30073;BME280;16897;52.422;13.678;2023-05-02T00:36:21;100935.97;;;16.18;38.86
30073;BME280;16897;52.422;13.678;2023-05-02T00:40:23;100924.53;;;16.06;38.95
30073;BME280;16897;52.422;13.678;2023-05-02T00:44:25;100901.13;;;15.90;39.04
30073;BME280;16897;52.422;13.678;2023-05-02T00:48:26;100909.91;;;15.90;39.02
30073;BME280;16897;52.422;13.678;2023-05-02T00:52:28;100903.91;;;15.88;39.05
30073;BME280;16897;52.422;13.678;2023-05-02T00:56:30;100932.66;;;16.03;38.95
30073;BME280;16897;52.422;13.678;2023-05-02T01:05:04;100938.16;;;16.00;39.09
30073;BME280;16897;52.422;13.678;2023-05-02T01:13:46;100927.44;;;15.79;38.89
30073;BME280;16897;52.422;13.678;2023-05-02T01:17:49;100891.22;;;15.45;39.08
30073;BME280;16897;52.422;13.678;2023-05-02T01:21:52;100945.16;;;15.64;39.00
30073;BME280;16897;52.422;13.678;2023-05-02T01:26:17;100944.22;;;15.65;39.20
30073;BME280;16897;52.422;13.678;2023-05-02T01:30:20;100935.75;;;15.48;38.97
30073;BME280;16897;52.422;13.678;2023-05-02T01:34:23;100942.69;;;15.49;39.20
30073;BME280;16897;52.422;13.678;2023-05-02T01:38:25;100944.72;;;15.46;39.17
30073;BME280;16897;52.422;13.678;2023-05-02T01:42:29;100960.41;;;15.47;39.30
30073;BME280;16897;52.422;13.678;2023-05-02T01:46:34;100922.19;;;15.18;38.97
30073;BME280;16897;52.422;13.678;2023-05-02T01:50:37;100960.13;;;15.39;39.21
30073;BME280;16897;52.422;13.678;2023-05-02T01:54:41;100961.59;;;15.31;39.14
30073;BME280;16897;52.422;13.678;2023-05-02T01:58:44;100957.38;;;15.28;39.41
30073;BME280;16897;52.422;13.678;2023-05-02T02:02:47;100954.69;;;15.17;39.24
30073;BME280;16897;52.422;13.678;2023-05-02T02:06:52;100956.25;;;15.19;39.30
30073;BME280;16897;52.422;13.678;2023-05-02T02:10:58;100944.28;;;15.02;39.44
30073;BME280;16897;52.422;13.678;2023-05-02T02:19:17;100957.53;;;15.01;39.50
30073;BME280;16897;52.422;13.678;2023-05-02T02:23:21;100974.19;;;15.01;39.49
30073;BME280;16897;52.422;13.678;2023-05-02T02:27:24;100961.78;;;14.91;39.54
30073;BME280;16897;52.422;13.678;2023-05-02T02:31:30;100962.53;;;14.80;39.62
30073;BME280;16897;52.422;13.678;2023-05-02T02:35:35;100974.81;;;14.79;39.58
30073;BME280;16897;52.422;13.678;2023-05-02T02:40:04;100994.09;;;14.80;39.56
30073;BME280;16897;52.422;13.678;2023-05-02T02:44:49;100999.84;;;14.72;39.54
30073;BME280;16897;52.422;13.678;2023-05-02T02:49:25;101013.94;;;14.71;39.58
30073;BME280;16897;52.422;13.678;2023-05-02T02:57:58;101021.28;;;14.66;39.75
30073;BME280;16897;52.422;13.678;2023-05-02T03:02:04;101011.63;;;14.54;39.72
30073;BME280;16897;52.422;13.678;2023-05-02T03:06:07;101005.88;;;14.47;39.68
30073;BME280;16897;52.422;13.678;2023-05-02T03:10:09;101041.81;;;14.61;39.87
30073;BME280;16897;52.422;13.678;2023-05-02T03:14:13;101020.59;;;14.50;39.81
30073;BME280;16897;52.422;13.678;2023-05-02T03:18:17;101043.03;;;14.55;39.93
30073;BME280;16897;52.422;13.678;2023-05-02T03:22:20;101052.63;;;14.56;39.91
30073;BME280;16897;52.422;13.678;2023-05-02T03:26:21;101055.03;;;14.59;39.91
30073;BME280;16897;52.422;13.678;2023-05-02T03:30:25;101044.38;;;14.48;40.07
30073;BME280;16897;52.422;13.678;2023-05-02T03:34:27;101024.34;;;14.33;39.92
30073;BME280;16897;52.422;13.678;2023-05-02T03:38:29;101083.19;;;14.57;40.01
30073;BME280;16897;52.422;13.678;2023-05-02T03:42:36;101076.13;;;14.45;39.97
30073;BME280;16897;52.422;13.678;2023-05-02T03:46:44;101078.94;;;14.42;39.98
30073;BME280;16897;52.422;13.678;2023-05-02T03:50:47;101070.50;;;14.37;40.08
30073;BME280;16897;52.422;13.678;2023-05-02T03:54:50;101104.59;;;14.51;40.09
30073;BME280;16897;52.422;13.678;2023-05-02T03:58:53;101099.34;;;14.51;40.06
30073;BME280;16897;52.422;13.678;2023-05-02T04:03:02;101105.00;;;14.45;40.03
30073;BME280;16897;52.422;13.678;2023-05-02T04:07:05;101118.59;;;14.52;40.14
30073;BME280;16897;52.422;13.678;2023-05-02T04:11:16;101106.06;;;14.43;40.18
30073;BME280;16897;52.422;13.678;2023-05-02T04:15:18;101080.22;;;14.22;40.13
30073;BME280;16897;52.422;13.678;2023-05-02T04:19:21;101149.88;;;14.56;40.18
30073;BME280;16897;52.422;13.678;2023-05-02T04:23:23;101147.50;;;14.52;40.31
30073;BME280;16897;52.422;13.678;2023-05-02T04:27:30;101150.78;;;14.55;40.15
30073;BME280;16897;52.422;13.678;2023-05-02T04:31:33;101146.41;;;14.56;40.16
30073;BME280;16897;52.422;13.678;2023-05-02T04:35:38;101136.75;;;14.42;40.38
30073;BME280;16897;52.422;13.678;2023-05-02T04:39:40;101176.50;;;14.65;40.38
30073;BME280;16897;52.422;13.678;2023-05-02T04:43:48;101161.41;;;14.54;40.34
30073;BME280;16897;52.422;13.678;2023-05-02T04:47:50;101152.31;;;14.45;40.37
30073;BME280;16897;52.422;13.678;2023-05-02T04:51:51;101170.38;;;14.50;40.18
30073;BME280;16897;52.422;13.678;2023-05-02T04:55:55;101199.94;;;14.68;40.28
30073;BME280;16897;52.422;13.678;2023-05-02T04:59:58;101206.72;;;14.72;40.36
30073;BME280;16897;52.422;13.678;2023-05-02T05:04:00;101205.00;;;14.71;40.39
30073;BME280;16897;52.422;13.678;2023-05-02T05:08:02;101188.69;;;14.66;40.47
30073;BME280;16897;52.422;13.678;2023-05-02T05:12:07;101186.72;;;14.69;40.52
30073;BME280;16897;52.422;13.678;2023-05-02T05:16:10;101220.19;;;14.80;40.39
30073;BME280;16897;52.422;13.678;2023-05-02T05:20:12;101195.09;;;14.62;40.43
30073;BME280;16897;52.422;13.678;2023-05-02T05:24:16;101208.38;;;14.73;40.63
30073;BME280;16897;52.422;13.678;2023-05-02T05:28:19;101248.00;;;14.97;40.66
30073;BME280;16897;52.422;13.678;2023-05-02T05:32:21;101232.72;;;14.89;40.58
30073;BME280;16897;52.422;13.678;2023-05-02T05:36:23;101238.06;;;14.88;40.65
30073;BME280;16897;52.422;13.678;2023-05-02T05:40:25;101268.44;;;15.06;40.72
30073;BME280;16897;52.422;13.678;2023-05-02T05:44:31;101246.50;;;14.93;40.78
30073;BME280;16897;52.422;13.678;2023-05-02T05:48:34;101264.69;;;15.10;40.80
30073;BME280;16897;52.422;13.678;2023-05-02T05:52:36;101279.56;;;15.24;40.81
30073;BME280;16897;52.422;13.678;2023-05-02T05:56:38;101276.31;;;15.33;40.83
30073;BME280;16897;52.422;13.678;2023-05-02T06:00:45;101242.81;;;15.22;40.90
30073;BME280;16897;52.422;13.678;2023-05-02T06:04:47;101295.53;;;15.61;40.89
30073;BME280;16897;52.422;13.678;2023-05-02T06:08:51;101296.69;;;15.57;40.73
30073;BME280;16897;52.422;13.678;2023-05-02T06:12:53;101319.59;;;15.69;40.77
30073;BME280;16897;52.422;13.678;2023-05-02T06:16:59;101319.38;;;15.72;40.89
30073;BME280;16897;52.422;13.678;2023-05-02T06:21:03;101306.50;;;15.67;40.83
30073;BME280;16897;52.422;13.678;2023-05-02T06:25:05;101314.75;;;15.76;40.91
30073;BME280;16897;52.422;13.678;2023-05-02T06:29:07;101346.91;;;15.93;40.92
30073;BME280;16897;52.422;13.678;2023-05-02T06:33:09;101333.31;;;16.00;40.85
30073;BME280;16897;52.422;13.678;2023-05-02T06:37:12;101362.81;;;16.05;40.94
30073;BME280;16897;52.422;13.678;2023-05-02T06:41:14;101364.94;;;16.12;40.91
30073;BME280;16897;52.422;13.678;2023-05-02T06:45:16;101364.38;;;16.20;40.80
30073;BME280;16897;52.422;13.678;2023-05-02T06:49:17;101375.28;;;16.28;40.85
30073;BME280;16897;52.422;13.678;2023-05-02T06:53:19;101373.56;;;16.27;40.78
30073;BME280;16897;52.422;13.678;2023-05-02T06:57:20;101361.56;;;16.23;41.00
30073;BME280;16897;52.422;13.678;2023-05-02T07:01:22;101375.69;;;16.35;41.11
30073;BME280;16897;52.422;13.678;2023-05-02T07:05:23;101378.09;;;16.38;41.06
30073;BME280;16897;52.422;13.678;2023-05-02T07:09:25;101361.56;;;16.23;41.06
30073;BME280;16897;52.422;13.678;2023-05-02T07:13:26;101388.56;;;16.40;41.03
30073;BME280;16897;52.422;13.678;2023-05-02T07:17:28;101413.63;;;16.71;40.97
30073;BME280;16897;52.422;13.678;2023-05-02T07:21:29;101380.91;;;16.60;40.97
30073;BME280;16897;52.422;13.678;2023-05-02T07:25:32;101381.97;;;16.71;41.00
30073;BME280;16897;52.422;13.678;2023-05-02T07:29:34;101428.91;;;17.04;41.27
30073;BME280;16897;52.422;13.678;2023-05-02T07:33:36;101434.59;;;17.11;41.18
30073;BME280;16897;52.422;13.678;2023-05-02T07:37:38;101446.78;;;17.24;41.09
30073;BME280;16897;52.422;13.678;2023-05-02T07:41:39;101455.78;;;17.22;41.10
30073;BME280;16897;52.422;13.678;2023-05-02T07:45:41;101445.22;;;17.22;41.06
30073;BME280;16897;52.422;13.678;2023-05-02T07:49:43;101418.44;;;17.02;41.30
30073;BME280;16897;52.422;13.678;2023-05-02T07:53:44;101436.38;;;17.10;41.05
30073;BME280;16897;52.422;13.678;2023-05-02T07:57:46;101480.78;;;17.29;41.20
30073;BME280;16897;52.422;13.678;2023-05-02T08:01:48;101468.34;;;17.18;40.97
30073;BME280;16897;52.422;13.678;2023-05-02T08:05:49;101473.69;;;17.30;41.16
30073;BME280;16897;52.422;13.678;2023-05-02T08:09:51;101473.09;;;17.26;41.08
30073;BME280;16897;52.422;13.678;2023-05-02T08:13:53;101494.91;;;17.41;41.16
30073;BME280;16897;52.422;13.678;2023-05-02T08:17:55;101485.31;;;17.40;41.26
30073;BME280;16897;52.422;13.678;2023-05-02T08:21:57;101502.03;;;17.52;41.24
30073;BME280;16897;52.422;13.678;2023-05-02T08:25:59;101454.72;;;17.24;41.44
30073;BME280;16897;52.422;13.678;2023-05-02T08:30:01;101456.91;;;17.31;41.17
30073;BME280;16897;52.422;13.678;2023-05-02T08:34:03;101511.19;;;17.72;41.33
30073;BME280;16897;52.422;13.678;2023-05-02T08:38:04;101480.69;;;17.55;41.22
30073;BME280;16897;52.422;13.678;2023-05-02T08:42:07;101521.72;;;17.84;41.17
30073;BME280;16897;52.422;13.678;2023-05-02T08:46:12;101519.19;;;17.83;41.11
30073;BME280;16897;52.422;13.678;2023-05-02T08:50:14;101527.00;;;17.84;41.42
30073;BME280;16897;52.422;13.678;2023-05-02T08:54:17;101502.63;;;17.68;41.45
30073;BME280;16897;52.422;13.678;2023-05-02T08:58:24;101541.38;;;17.93;41.28
30073;BME280;16897;52.422;13.678;2023-05-02T09:06:39;101525.31;;;17.83;41.21
30073;BME280;16897;52.422;13.678;2023-05-02T09:10:41;101513.69;;;17.73;41.28
30073;BME280;16897;52.422;13.678;2023-05-02T09:14:44;101560.97;;;18.02;41.21
30073;BME280;16897;52.422;13.678;2023-05-02T09:18:47;101552.63;;;17.95;41.47
30073;BME280;16897;52.422;13.678;2023-05-02T09:22:50;101577.22;;;18.08;41.28
30073;BME280;16897;52.422;13.678;2023-05-02T09:27:03;101559.72;;;17.95;41.30
30073;BME280;16897;52.422;13.678;2023-05-02T09:31:11;101584.69;;;18.14;41.33
30073;BME280;16897;52.422;13.678;2023-05-02T09:35:13;101583.06;;;18.25;41.28
30073;BME280;16897;52.422;13.678;2023-05-02T09:39:25;101587.56;;;18.35;41.21
30073;BME280;16897;52.422;13.678;2023-05-02T09:43:27;101559.66;;;18.31;41.32
30073;BME280;16897;52.422;13.678;2023-05-02T09:47:28;101568.81;;;18.39;41.17
30073;BME280;16897;52.422;13.678;2023-05-02T09:51:30;101580.63;;;18.46;41.43
30073;BME280;16897;52.422;13.678;2023-05-02T09:55:32;101584.63;;;18.51;41.23
30073;BME280;16897;52.422;13.678;2023-05-02T09:59:33;101596.66;;;18.55;41.42
30073;BME280;16897;52.422;13.678;2023-05-02T10:03:36;101601.97;;;18.55;41.25
30073;BME280;16897;52.422;13.678;2023-05-02T10:07:37;101601.22;;;18.53;41.48
30073;BME280;16897;52.422;13.678;2023-05-02T10:11:43;101609.75;;;18.57;41.25
30073;BME280;16897;52.422;13.678;2023-05-02T10:15:45;101589.78;;;18.42;41.23
30073;BME280;16897;52.422;13.678;2023-05-02T10:19:58;101621.91;;;18.60;41.19
30073;BME280;16897;52.422;13.678;2023-05-02T10:24:01;101622.50;;;18.52;41.28
30073;BME280;16897;52.422;13.678;2023-05-02T10:28:06;101623.56;;;18.49;41.28
30073;BME280;16897;52.422;13.678;2023-05-02T10:32:08;101626.78;;;18.42;41.17
30073;BME280;16897;52.422;13.678;2023-05-02T10:36:11;101631.63;;;18.48;41.21
30073;BME280;16897;52.422;13.678;2023-05-02T10:40:15;101640.16;;;18.51;41.43
30073;BME280;16897;52.422;13.678;2023-05-02T10:44:35;101638.25;;;18.53;41.25
30073;BME280;16897;52.422;13.678;2023-05-02T10:48:37;101626.66;;;18.43;41.41
30073;BME280;16897;52.422;13.678;2023-05-02T10:52:39;101625.69;;;18.44;41.52
30073;BME280;16897;52.422;13.678;2023-05-02T11:05:28;101642.72;;;18.53;41.22
30073;BME280;16897;52.422;13.678;2023-05-02T11:09:31;101633.88;;;18.41;41.64
30073;BME280;16897;52.422;13.678;2023-05-02T11:13:49;101681.66;;;18.51;41.23
30073;BME280;16897;52.422;13.678;2023-05-02T11:26:21;101696.44;;;18.29;41.47
30073;BME280;16897;52.422;13.678;2023-05-02T11:30:40;101689.28;;;18.19;41.66
30073;BME280;16897;52.422;13.678;2023-05-02T11:34:42;101696.75;;;18.25;41.38
30073;BME280;16897;52.422;13.678;2023-05-02T11:38:44;101711.69;;;18.26;41.61
30073;BME280;16897;52.422;13.678;2023-05-02T11:42:47;101694.34;;;18.22;41.63
30073;BME280;16897;52.422;13.678;2023-05-02T11:46:48;101711.69;;;18.26;41.47
30073;BME280;16897;52.422;13.678;2023-05-02T11:50:51;101730.19;;;18.26;41.64
30073;BME280;16897;52.422;13.678;2023-05-02T11:54:53;101745.25;;;18.12;41.63
30073;BME280;16897;52.422;13.678;2023-05-02T11:58:59;101735.13;;;17.94;41.71
30073;BME280;16897;52.422;13.678;2023-05-02T12:03:01;101763.84;;;17.98;41.71
30073;BME280;16897;52.422;13.678;2023-05-02T12:07:03;101767.78;;;17.92;41.60
30073;BME280;16897;52.422;13.678;2023-05-02T12:11:05;101754.88;;;17.75;41.82
30073;BME280;16897;52.422;13.678;2023-05-02T12:15:09;101771.81;;;17.85;41.55
30073;BME280;16897;52.422;13.678;2023-05-02T12:19:11;101768.22;;;17.86;41.60
30073;BME280;16897;52.422;13.678;2023-05-02T12:23:13;101781.09;;;17.91;41.75
30073;BME280;16897;52.422;13.678;2023-05-02T12:27:15;101790.81;;;18.03;41.95
30073;BME280;16897;52.422;13.678;2023-05-02T12:31:17;101796.09;;;18.03;41.61
30073;BME280;16897;52.422;13.678;2023-05-02T12:35:22;101803.41;;;18.00;41.59
30073;BME280;16897;52.422;13.678;2023-05-02T12:39:42;101812.91;;;18.02;41.68
30073;BME280;16897;52.422;13.678;2023-05-02T12:43:48;101792.94;;;17.85;41.53
30073;BME280;16897;52.422;13.678;2023-05-02T12:47:49;101776.31;;;17.70;41.50
30073;BME280;16897;52.422;13.678;2023-05-02T12:51:54;101788.56;;;17.59;41.49
30073;BME280;16897;52.422;13.678;2023-05-02T12:56:02;101791.41;;;17.56;41.67
30073;BME280;16897;52.422;13.678;2023-05-02T13:00:04;101792.78;;;17.48;41.63
30073;BME280;16897;52.422;13.678;2023-05-02T13:04:07;101808.19;;;17.42;41.58
30073;BME280;16897;52.422;13.678;2023-05-02T13:08:08;101808.91;;;17.44;41.53
30073;BME280;16897;52.422;13.678;2023-05-02T13:12:09;101800.25;;;17.29;41.52
30073;BME280;16897;52.422;13.678;2023-05-02T13:16:11;101840.22;;;17.50;41.73
30073;BME280;16897;52.422;13.678;2023-05-02T13:20:12;101836.63;;;17.51;41.49
30073;BME280;16897;52.422;13.678;2023-05-02T13:24:14;101809.53;;;17.35;41.59
30073;BME280;16897;52.422;13.678;2023-05-02T13:28:18;101852.06;;;17.57;41.65
30073;BME280;16897;52.422;13.678;2023-05-02T13:32:19;101840.00;;;17.53;41.53
30073;BME280;16897;52.422;13.678;2023-05-02T13:36:22;101834.06;;;17.50;41.84
30073;BME280;16897;52.422;13.678;2023-05-02T13:40:25;101852.06;;;17.57;41.69
30073;BME280;16897;52.422;13.678;2023-05-02T13:44:26;101844.13;;;17.57;41.63
30073;BME280;16897;52.422;13.678;2023-05-02T13:48:27;101852.06;;;17.57;41.65
30073;BME280;16897;52.422;13.678;2023-05-02T13:52:30;101833.22;;;17.49;41.43
30073;BME280;16897;52.422;13.678;2023-05-02T13:56:31;101837.38;;;17.53;41.55
30073;BME280;16897;52.422;13.678;2023-05-02T14:00:32;101865.50;;;17.67;41.36
30073;BME280;16897;52.422;13.678;2023-05-02T14:04:35;101857.34;;;17.57;41.60
30073;BME280;16897;52.422;13.678;2023-05-02T14:08:36;101866.44;;;17.53;41.54
30073;BME280;16897;52.422;13.678;2023-05-02T14:12:38;101862.69;;;17.43;41.37
30073;BME280;16897;52.422;13.678;2023-05-02T14:16:39;101882.47;;;17.50;41.31
30073;BME280;16897;52.422;13.678;2023-05-02T14:20:41;101883.06;;;17.41;41.44
30073;BME280;16897;52.422;13.678;2023-05-02T14:24:43;101856.44;;;17.31;41.45
30073;BME280;16897;52.422;13.678;2023-05-02T14:28:44;101881.59;;;17.50;41.75
30073;BME280;16897;52.422;13.678;2023-05-02T14:32:46;101873.59;;;17.51;41.41
30073;BME280;16897;52.422;13.678;2023-05-02T14:36:47;101867.69;;;17.47;41.39
30073;BME280;16897;52.422;13.678;2023-05-02T14:40:49;101904.59;;;17.62;41.29
30073;BME280;16897;52.422;13.678;2023-05-02T14:44:50;101907.13;;;17.63;41.41
30073;BME280;16897;52.422;13.678;2023-05-02T14:48:52;101874.84;;;17.45;41.21
30073;BME280;16897;52.422;13.678;2023-05-02T14:52:54;101909.44;;;17.55;41.27
30073;BME280;16897;52.422;13.678;2023-05-02T14:56:55;101909.47;;;17.41;41.17
30073;BME280;16897;52.422;13.678;2023-05-02T15:00:57;101917.25;;;17.30;41.13
30073;BME280;16897;52.422;13.678;2023-05-02T15:04:58;101925.56;;;17.23;41.23
30073;BME280;16897;52.422;13.678;2023-05-02T15:09:00;101939.22;;;17.30;41.26
30073;BME280;16897;52.422;13.678;2023-05-02T15:13:02;101909.59;;;16.98;40.93
30073;BME280;16897;52.422;13.678;2023-05-02T15:17:04;101940.13;;;17.02;41.11
30073;BME280;16897;52.422;13.678;2023-05-02T15:21:06;101944.28;;;16.92;41.00
30073;BME280;16897;52.422;13.678;2023-05-02T15:25:07;101935.53;;;16.77;40.86
30073;BME280;16897;52.422;13.678;2023-05-02T15:29:09;101945.78;;;16.67;41.02
30073;BME280;16897;52.422;13.678;2023-05-02T15:33:11;101925.03;;;16.32;40.87
30073;BME280;16897;52.422;13.678;2023-05-02T15:37:12;101968.34;;;16.43;40.91
30073;BME280;16897;52.422;13.678;2023-05-02T15:41:13;101960.50;;;16.27;40.99
30073;BME280;16897;52.422;13.678;2023-05-02T15:45:15;101979.81;;;16.27;41.01
30073;BME280;16897;52.422;13.678;2023-05-02T15:49:17;101982.81;;;16.21;40.95
30073;BME280;16897;52.422;13.678;2023-05-02T15:53:19;101964.59;;;16.02;40.90
30073;BME280;16897;52.422;13.678;2023-05-02T15:57:23;101983.03;;;16.02;41.03
30073;BME280;16897;52.422;13.678;2023-05-02T16:01:26;101985.16;;;15.96;40.80
30073;BME280;16897;52.422;13.678;2023-05-02T16:05:27;101982.13;;;15.87;40.87
30073;BME280;16897;52.422;13.678;2023-05-02T16:09:29;102003.88;;;15.91;40.98
30073;BME280;16897;52.422;13.678;2023-05-02T16:13:33;101993.00;;;15.81;40.80
30073;BME280;16897;52.422;13.678;2023-05-02T16:17:34;102000.84;;;15.83;40.81
30073;BME280;16897;52.422;13.678;2023-05-02T16:21:35;102000.25;;;15.78;40.97
30073;BME280;16897;52.422;13.678;2023-05-02T16:25:37;102021.03;;;15.82;40.94
30073;BME280;16897;52.422;13.678;2023-05-02T16:29:38;101975.69;;;15.61;40.90
30073;BME280;16897;52.422;13.678;2023-05-02T16:33:40;102009.66;;;15.82;40.90
30073;BME280;16897;52.422;13.678;2023-05-02T16:37:42;102005.41;;;15.79;40.63
30073;BME280;16897;52.422;13.678;2023-05-02T16:41:44;101964.91;;;15.50;40.76
30073;BME280;16897;52.422;13.678;2023-05-02T16:45:45;102012.47;;;15.79;40.82
30073;BME280;16897;52.422;13.678;2023-05-02T16:49:52;101992.16;;;15.65;40.71
30073;BME280;16897;52.422;13.678;2023-05-02T16:53:53;102009.19;;;15.75;40.82
30073;BME280;16897;52.422;13.678;2023-05-02T16:57:55;102006.28;;;15.64;40.72
30073;BME280;16897;52.422;13.678;2023-05-02T17:01:57;102016.63;;;15.67;40.80
30073;BME280;16897;52.422;13.678;2023-05-02T17:05:59;102006.34;;;15.62;40.80
30073;BME280;16897;52.422;13.678;2023-05-02T17:10:01;102022.06;;;15.64;40.83
30073;BME280;16897;52.422;13.678;2023-05-02T17:14:04;102021.66;;;15.56;40.65
30073;BME280;16897;52.422;13.678;2023-05-02T17:18:06;102026.97;;;15.54;40.69
30073;BME280;16897;52.422;13.678;2023-05-02T17:22:08;102022.72;;;15.52;40.88
30073;BME280;16897;52.422;13.678;2023-05-02T17:26:09;102017.28;;;15.39;40.38
30073;BME280;16897;52.422;13.678;2023-05-02T17:30:15;102045.66;;;15.49;40.60
30073;BME280;16897;52.422;13.678;2023-05-02T17:34:16;102043.38;;;15.43;40.59
30073;BME280;16897;52.422;13.678;2023-05-02T17:38:18;102032.25;;;15.38;40.72
30073;BME280;16897;52.422;13.678;2023-05-02T17:42:19;102042.00;;;15.36;40.68
30073;BME280;16897;52.422;13.678;2023-05-02T17:46:21;102058.38;;;15.41;40.66
30073;BME280;16897;52.422;13.678;2023-05-02T17:50:22;102036.28;;;15.28;40.44
30073;BME280;16897;52.422;13.678;2023-05-02T17:54:24;102056.16;;;15.34;40.71
30073;BME280;16897;52.422;13.678;2023-05-02T17:58:25;102036.97;;;15.16;40.66
30073;BME280;16897;52.422;13.678;2023-05-02T18:02:28;102042.56;;;15.10;40.59
30073;BME280;16897;52.422;13.678;2023-05-02T18:06:29;102062.59;;;15.12;40.63
30073;BME280;16897;52.422;13.678;2023-05-02T18:10:36;102062.22;;;15.02;40.48
30073;BME280;16897;52.422;13.678;2023-05-02T18:14:37;102055.84;;;14.91;40.55
30073;BME280;16897;52.422;13.678;2023-05-02T18:18:38;102039.06;;;14.76;40.68
30073;BME280;16897;52.422;13.678;2023-05-02T18:22:40;102071.69;;;14.89;40.49
30073;BME280;16897;52.422;13.678;2023-05-02T18:26:42;102048.34;;;14.66;40.55
30073;BME280;16897;52.422;13.678;2023-05-02T18:30:43;102064.72;;;14.71;40.52
30073;BME280;16897;52.422;13.678;2023-05-02T18:34:45;102063.22;;;14.67;40.57
30073;BME280;16897;52.422;13.678;2023-05-02T18:38:46;102083.47;;;14.65;40.52
30073;BME280;16897;52.422;13.678;2023-05-02T18:42:47;102038.09;;;14.25;40.51
30073;BME280;16897;52.422;13.678;2023-05-02T18:46:49;102057.28;;;14.27;40.63
30073;BME280;16897;52.422;13.678;2023-05-02T18:50:54;102085.03;;;14.32;40.52
30073;BME280;16897;52.422;13.678;2023-05-02T18:54:56;102054.34;;;14.15;40.72
30073;BME280;16897;52.422;13.678;2023-05-02T18:58:58;102094.53;;;14.35;40.77
30073;BME280;16897;52.422;13.678;2023-05-02T19:02:59;102048.44;;;14.10;40.69
30073;BME280;16897;52.422;13.678;2023-05-02T19:07:00;102100.59;;;14.37;40.74
30073;BME280;16897;52.422;13.678;2023-05-02T19:11:02;102107.38;;;14.41;40.65
30073;BME280;16897;52.422;13.678;2023-05-02T19:15:04;102114.41;;;14.41;40.70
30073;BME280;16897;52.422;13.678;2023-05-02T19:19:06;102101.50;;;14.36;40.81
30073;BME280;16897;52.422;13.678;2023-05-02T19:23:08;102115.25;;;14.41;40.77
30073;BME280;16897;52.422;13.678;2023-05-02T19:27:10;102120.50;;;14.41;40.68
30073;BME280;16897;52.422;13.678;2023-05-02T19:31:14;102130.13;;;14.42;40.75
30073;BME280;16897;52.422;13.678;2023-05-02T19:35:16;102130.13;;;14.42;40.74
30073;BME280;16897;52.422;13.678;2023-05-02T19:39:18;102138.06;;;14.41;40.70
30073;BME280;16897;52.422;13.678;2023-05-02T19:43:20;102135.81;;;14.33;40.79
30073;BME280;16897;52.422;13.678;2023-05-02T19:47:21;102153.28;;;14.34;40.69
30073;BME280;16897;52.422;13.678;2023-05-02T19:51:23;102118.94;;;14.20;40.79
30073;BME280;16897;52.422;13.678;2023-05-02T19:55:26;102137.81;;;14.28;40.95
30073;BME280;16897;52.422;13.678;2023-05-02T19:59:28;102148.56;;;14.23;40.73
30073;BME280;16897;52.422;13.678;2023-05-02T20:03:29;102146.13;;;14.19;40.90
30073;BME280;16897;52.422;13.678;2023-05-02T20:07:31;102141.53;;;14.05;40.86
30073;BME280;16897;52.422;13.678;2023-05-02T20:11:33;102111.56;;;13.90;40.93
30073;BME280;16897;52.422;13.678;2023-05-02T20:15:34;102160.56;;;14.10;41.08
30073;BME280;16897;52.422;13.678;2023-05-02T20:19:36;102145.22;;;14.01;40.97
30073;BME280;16897;52.422;13.678;2023-05-02T20:23:37;102154.66;;;14.05;40.88
30073;BME280;16897;52.422;13.678;2023-05-02T20:27:43;102108.75;;;13.76;40.99
30073;BME280;16897;52.422;13.678;2023-05-02T20:31:45;102162.13;;;13.95;41.05
30073;BME280;16897;52.422;13.678;2023-05-02T20:35:55;102168.00;;;14.00;41.05
30073;BME280;16897;52.422;13.678;2023-05-02T20:39:56;102147.00;;;13.81;40.98
30073;BME280;16897;52.422;13.678;2023-05-02T20:43:58;102158.84;;;13.90;41.06
30073;BME280;16897;52.422;13.678;2023-05-02T20:48:01;102184.69;;;13.99;41.11
30073;BME280;16897;52.422;13.678;2023-05-02T20:52:03;102185.47;;;14.01;41.08
30073;BME280;16897;52.422;13.678;2023-05-02T20:56:06;102184.75;;;13.98;41.00
30073;BME280;16897;52.422;13.678;2023-05-02T21:00:08;102173.19;;;13.83;41.15
30073;BME280;16897;52.422;13.678;2023-05-02T21:04:12;102192.00;;;13.92;41.16
30073;BME280;16897;52.422;13.678;2023-05-02T21:08:14;102164.31;;;13.66;41.13
30073;BME280;16897;52.422;13.678;2023-05-02T21:12:15;102198.38;;;13.87;41.17
30073;BME280;16897;52.422;13.678;2023-05-02T21:16:17;102193.56;;;13.78;41.13
30073;BME280;16897;52.422;13.678;2023-05-02T21:20:19;102188.50;;;13.73;41.27
30073;BME280;16897;52.422;13.678;2023-05-02T21:24:21;102211.66;;;13.84;41.35
30073;BME280;16897;52.422;13.678;2023-05-02T21:28:23;102171.47;;;13.63;41.14
30073;BME280;16897;52.422;13.678;2023-05-02T21:32:24;102157.97;;;13.52;41.33